Time;durP1;ratioP1;P1;durP2;ratioP2;P2;SDS_P1;SDS_P2;PMS_P1;PMS_P2;Temp;Humidity;BMP_temperature;BMP_pressure;BME280_temperature;BME280_humidity;BME280_pressure;Samples;Min_cycle;Max_cycle;Signal;HPM_P1;HPM_P2
2021/12/12 00:02:18;;;;;;;23.25;8.95;;;;;;;4.50;88.15;101887.81;4995961;28;20117;-68
2021/12/12 00:04:46;;;;;;;20.93;8.10;;;;;;;4.49;87.76;101888.78;4996198;28;20026;-68
2021/12/12 00:07:20;;;;;;;24.08;8.88;;;;;;;4.48;87.97;101883.59;4996298;28;20482;-68
2021/12/12 00:09:49;;;;;;;23.08;8.73;;;;;;;4.46;88.13;101890.97;4996111;28;20018;-68
2021/12/12 00:12:29;;;;;;;25.20;8.13;;;;;;;4.48;88.08;101887.09;4995963;28;20418;-68
2021/12/12 00:14:56;;;;;;;25.45;9.20;;;;;;;4.51;88.06;101877.91;4997087;28;20486;-68
2021/12/12 00:17:22;;;;;;;24.98;8.25;;;;;;;4.51;88.01;101868.03;4996244;28;20057;-68
2021/12/12 00:19:48;;;;;;;20.90;7.65;;;;;;;4.53;88.24;101875.91;4995946;28;20042;-68
2021/12/12 00:22:17;;;;;;;22.52;7.78;;;;;;;4.52;88.08;101867.03;4996015;28;20027;-69
2021/12/12 00:24:43;;;;;;;26.85;8.02;;;;;;;4.56;87.45;101872.91;4978320;28;20027;-69
2021/12/12 00:27:09;;;;;;;21.77;7.68;;;;;;;4.57;87.67;101875.41;4995988;28;20109;-69
2021/12/12 00:29:35;;;;;;;28.27;8.00;;;;;;;4.59;87.72;101864.56;4996614;28;20117;-69
2021/12/12 00:32:05;;;;;;;23.10;7.95;;;;;;;4.55;87.94;101871.25;5015402;28;20034;-69
2021/12/12 00:34:35;;;;;;;21.15;7.28;;;;;;;4.54;88.09;101867.69;5015368;28;20473;-69
2021/12/12 00:37:02;;;;;;;22.50;7.65;;;;;;;4.55;87.80;101861.34;5014935;28;20430;-70
2021/12/12 00:39:32;;;;;;;26.55;7.75;;;;;;;4.59;88.03;101859.19;4997740;28;20033;-69
2021/12/12 00:42:07;;;;;;;23.52;7.70;;;;;;;4.60;88.35;101860.88;5014789;28;20062;-69
2021/12/12 00:44:33;;;;;;;23.58;7.70;;;;;;;4.59;87.64;101856.53;4994681;28;20031;-71
2021/12/12 00:47:01;;;;;;;24.15;8.02;;;;;;;4.64;87.98;101861.41;4995533;28;20054;-69
2021/12/12 00:49:28;;;;;;;22.35;7.38;;;;;;;4.64;87.65;101856.03;4995379;28;20446;-69
2021/12/12 00:51:54;;;;;;;20.80;7.68;;;;;;;4.61;88.11;101851.84;4995084;28;20053;-69
2021/12/12 00:54:19;;;;;;;20.90;7.32;;;;;;;4.63;88.45;101847.13;4995552;28;20038;-69
2021/12/12 00:56:47;;;;;;;22.05;7.80;;;;;;;4.61;88.46;101849.97;4995308;28;20081;-69
2021/12/12 00:59:13;;;;;;;24.88;8.10;;;;;;;4.59;88.32;101843.13;4997527;28;20044;-69
2021/12/12 01:01:44;;;;;;;23.00;7.57;;;;;;;4.59;88.91;101843.94;5012436;28;20447;-70
2021/12/12 01:04:15;;;;;;;27.93;7.87;;;;;;;4.59;89.36;101838.59;5014943;28;20033;-70
2021/12/12 01:06:42;;;;;;;23.05;8.43;;;;;;;4.60;89.33;101834.06;5014918;28;20021;-69
2021/12/12 01:09:12;;;;;;;21.63;7.32;;;;;;;4.63;89.33;101827.53;5014567;28;20044;-69
2021/12/12 01:11:42;;;;;;;23.85;7.30;;;;;;;4.59;89.24;101838.59;5014797;28;20033;-70
2021/12/12 01:14:11;;;;;;;17.88;7.10;;;;;;;4.63;89.47;101838.25;5010637;28;20031;-69
2021/12/12 01:16:43;;;;;;;24.42;7.85;;;;;;;4.65;89.59;101831.75;4995150;28;20034;-69
2021/12/12 01:19:19;;;;;;;23.55;8.52;;;;;;;4.64;88.93;101840.78;4994893;28;20030;-69
2021/12/12 01:21:51;;;;;;;27.00;8.10;;;;;;;4.60;89.37;101829.56;4995056;28;20033;-69
2021/12/12 01:24:24;;;;;;;24.25;7.85;;;;;;;4.66;89.60;101832.56;4994945;28;20035;-70
2021/12/12 01:26:49;;;;;;;21.58;8.10;;;;;;;4.60;89.88;101824.19;4994690;28;20030;-70
2021/12/12 01:29:15;;;;;;;25.33;8.07;;;;;;;4.61;89.66;101841.09;5001318;28;20026;-69
2021/12/12 01:31:47;;;;;;;24.10;8.20;;;;;;;4.63;89.95;101844.44;5014352;28;20038;-70
2021/12/12 01:34:15;;;;;;;31.35;8.43;;;;;;;4.62;89.47;101840.13;5014606;28;20026;-69
2021/12/12 01:36:52;;;;;;;23.48;7.70;;;;;;;4.64;89.88;101839.94;5014308;28;20040;-70
2021/12/12 01:39:21;;;;;;;21.33;7.82;;;;;;;4.64;89.93;101839.94;5014316;28;20036;-69
2021/12/12 01:41:53;;;;;;;23.20;7.75;;;;;;;4.70;90.11;101834.78;5013437;28;20033;-69
2021/12/12 01:44:28;;;;;;;24.10;8.30;;;;;;;4.70;90.03;101831.25;5013542;28;20026;-70
2021/12/12 01:47:09;;;;;;;32.28;8.38;;;;;;;4.71;90.24;101825.72;4996062;28;20076;-70
2021/12/12 01:49:36;;;;;;;;;;;;;;;4.82;89.59;101837.16;5014515;28;20026;-69
2021/12/12 01:52:06;;;;;;;21.60;7.78;;;;;;;4.73;90.01;101834.44;5013091;28;19975;-69
2021/12/12 01:54:43;;;;;;;22.05;8.15;;;;;;;4.73;90.40;101836.28;5013905;28;20030;-70
2021/12/12 01:57:16;;;;;;;24.88;8.32;;;;;;;4.70;90.02;101831.25;5013974;28;20052;-70
2021/12/12 01:59:43;;;;;;;32.67;8.60;;;;;;;4.74;90.34;101836.13;4999082;28;20529;-70
2021/12/12 02:02:14;;;;;;;19.83;7.93;;;;;;;4.75;90.69;101827.06;4991611;28;20057;-69
2021/12/12 02:04:44;;;;;;;22.02;7.72;;;;;;;4.73;90.22;101823.72;5008844;28;20465;-70
2021/12/12 02:07:12;;;;;;;24.58;7.93;;;;;;;4.75;90.44;101827.06;4994099;28;20084;-70
2021/12/12 02:09:40;;;;;;;29.88;7.70;;;;;;;4.75;90.15;101821.69;5013723;28;20481;-70
2021/12/12 02:12:06;;;;;;;25.23;7.68;;;;;;;4.79;90.54;101822.25;5013462;28;20033;-70
2021/12/12 02:14:36;;;;;;;24.23;7.75;;;;;;;4.82;90.82;101826.44;4998292;28;20031;-70
2021/12/12 02:17:11;;;;;;;18.83;7.47;;;;;;;4.86;90.82;101827.78;4993977;28;20081;-70
2021/12/12 02:20:02;;;;;;;21.75;7.90;;;;;;;4.82;90.50;101816.53;4994159;28;20045;-70
2021/12/12 02:36:00;;;;;;;21.10;7.93;;;;;;;4.90;90.88;101818.41;5010213;28;20117;-70
2021/12/12 02:38:31;;;;;;;24.33;7.70;;;;;;;4.89;90.53;101816.72;5013342;28;20117;-70
2021/12/12 02:41:04;;;;;;;20.35;6.80;;;;;;;4.91;90.94;101814.72;5001797;28;20041;-70
2021/12/12 02:43:32;;;;;;;24.55;7.38;;;;;;;4.92;91.04;101811.03;5004798;28;20030;-70
2021/12/12 02:45:58;;;;;;;23.80;8.07;;;;;;;4.91;91.37;101798.63;4993433;28;20081;-70
2021/12/12 02:48:27;;;;;;;19.27;7.32;;;;;;;4.94;91.89;101792.94;4993453;28;20128;-70
2021/12/12 02:50:54;;;;;;;23.27;7.78;;;;;;;4.94;91.88;101784.91;4975810;28;20374;-69
2021/12/12 02:53:29;;;;;;;26.80;7.63;;;;;;;4.99;91.54;101787.91;4993550;28;20101;-70
2021/12/12 02:55:59;;;;;;;26.15;7.47;;;;;;;5.01;92.19;101783.22;4993213;28;20088;-70
2021/12/12 02:58:26;;;;;;;26.40;7.35;;;;;;;4.99;91.45;101779.88;5000077;28;20036;-70
2021/12/12 03:01:06;;;;;;;25.95;7.90;;;;;;;4.96;92.16;101782.88;5010080;28;20026;-70
2021/12/12 03:03:35;;;;;;;24.33;8.55;;;;;;;4.93;92.62;101785.91;5012161;28;20029;-70
2021/12/12 03:06:00;;;;;;;27.83;7.35;;;;;;;4.97;92.17;101788.09;5012607;28;20064;-70
2021/12/12 03:08:25;;;;;;;24.02;7.43;;;;;;;4.92;92.45;101784.22;5012872;28;20454;-70
2021/12/12 03:10:53;;;;;;;24.05;8.10;;;;;;;4.92;92.74;101776.16;5002382;28;20026;-70
2021/12/12 03:13:20;;;;;;;22.23;7.28;;;;;;;4.92;92.97;101778.84;4993219;28;20030;-70
2021/12/12 03:15:47;;;;;;;25.63;7.75;;;;;;;4.91;92.96;101783.38;4993260;28;20081;-70
2021/12/12 03:18:18;;;;;;;23.02;7.55;;;;;;;4.93;93.47;101783.22;4993149;28;20041;-70
2021/12/12 03:20:49;;;;;;;24.20;7.97;;;;;;;4.93;93.17;101784.03;5005851;28;20042;-70
2021/12/12 03:23:17;;;;;;;25.00;8.00;;;;;;;4.93;93.49;101780.53;5012443;28;20033;-70
2021/12/12 03:25:45;;;;;;;19.40;7.70;;;;;;;4.94;93.21;101784.91;5000263;28;20456;-69
2021/12/12 03:28:14;;;;;;;18.25;6.78;;;;;;;4.92;93.43;101776.16;4992708;28;20596;-70
2021/12/12 03:30:41;;;;;;;22.60;7.57;;;;;;;4.92;93.68;101765.44;5004807;28;20045;-70
2021/12/12 03:33:07;;;;;;;24.92;8.60;;;;;;;4.93;93.43;101764.44;5012431;28;20100;-70
2021/12/12 03:35:33;;;;;;;22.75;8.27;;;;;;;4.98;93.44;101759.41;5012330;28;20417;-68
2021/12/12 03:37:59;;;;;;;23.45;8.00;;;;;;;4.93;93.47;101753.72;5012350;28;20085;-68
2021/12/12 03:40:29;;;;;;;26.85;8.07;;;;;;;4.93;94.31;101753.72;5000747;28;20053;-70
2021/12/12 03:42:57;;;;;;;24.65;7.88;;;;;;;4.97;94.15;101760.44;4992333;28;20030;-70
2021/12/12 03:45:23;;;;;;;19.25;7.88;;;;;;;4.97;94.73;101761.25;4992696;28;20074;-70
2021/12/12 03:47:54;;;;;;;24.58;8.20;;;;;;;4.97;94.23;101755.06;4992631;28;20608;-70
2021/12/12 03:50:25;;;;;;;25.08;7.97;;;;;;;5.01;94.66;101756.38;4992858;28;20381;-70
2021/12/12 03:52:50;;;;;;;21.33;8.80;;;;;;;4.96;94.51;101753.38;4992842;28;20031;-70
2021/12/12 03:55:17;;;;;;;27.08;8.27;;;;;;;4.93;94.66;101751.03;4992872;28;20320;-70
2021/12/12 03:57:44;;;;;;;19.05;7.70;;;;;;;4.93;95.08;101741.13;4998967;28;20095;-70
2021/12/12 04:00:15;;;;;;;25.30;8.35;;;;;;;4.96;95.04;101753.38;5011677;28;20033;-70
2021/12/12 04:02:41;;;;;;;23.98;8.68;;;;;;;4.98;95.62;101759.41;4990743;28;20088;-70
2021/12/12 04:05:07;;;;;;;26.27;8.80;;;;;;;4.97;95.10;101750.53;4975107;28;20034;-70
2021/12/12 04:07:33;;;;;;;24.00;8.57;;;;;;;5.01;95.15;101761.75;4992296;28;20050;-70
2021/12/12 04:10:00;;;;;;;23.77;8.45;;;;;;;5.02;95.04;101762.59;5004228;28;20064;-70
2021/12/12 04:12:28;;;;;;;22.17;8.77;;;;;;;5.01;95.54;101760.94;5012278;28;20026;-70
2021/12/12 04:14:56;;;;;;;22.13;8.35;;;;;;;5.02;95.45;101763.44;5011935;28;20030;-70
2021/12/12 04:17:25;;;;;;;16.48;8.18;;;;;;;5.02;96.04;101757.25;4997733;28;20033;-70
2021/12/12 04:19:53;;;;;;;19.20;8.18;;;;;;;5.05;95.21;101751.53;5015590;28;20029;-70
2021/12/12 04:22:19;;;;;;;20.50;8.40;;;;;;;5.06;95.55;101763.97;5015228;28;20038;-70
2021/12/12 04:24:48;;;;;;;18.85;7.75;;;;;;;5.08;95.49;101768.13;5003312;28;20041;-69
2021/12/12 04:27:15;;;;;;;15.75;7.45;;;;;;;5.08;94.75;101768.13;4995832;28;20031;-69
2021/12/12 04:29:44;;;;;;;15.70;6.90;;;;;;;5.07;95.51;101753.06;4978549;28;20027;-70
2021/12/12 04:32:14;;;;;;;17.77;6.85;;;;;;;5.09;95.73;101769.00;4996114;28;20030;-70
2021/12/12 04:34:51;;;;;;;16.55;6.93;;;;;;;5.10;95.86;101766.16;4996216;28;20121;-70
2021/12/12 04:37:17;;;;;;;14.13;6.72;;;;;;;5.10;95.89;101768.84;4995636;28;20022;-69
2021/12/12 04:39:48;;;;;;;15.05;7.28;;;;;;;5.12;96.27;101766.81;5009468;28;20040;-70
2021/12/12 04:42:20;;;;;;;17.88;7.88;;;;;;;5.14;96.04;101772.00;5015099;28;20026;-70
2021/12/12 04:44:49;;;;;;;15.48;6.70;;;;;;;5.13;95.99;101765.81;5015351;28;20469;-69
2021/12/12 04:50:20;;;;;;;14.85;6.50;;;;;;;5.13;96.35;101760.44;5014881;28;20053;-69
2021/12/12 04:52:56;;;;;;;15.85;7.07;;;;;;;5.17;96.05;101755.56;5011750;28;20050;-70
2021/12/12 04:55:37;;;;;;;15.00;6.75;;;;;;;5.17;96.41;101758.25;4995390;28;20476;-69
2021/12/12 04:58:20;;;;;;;14.88;6.10;;;;;;;5.22;96.00;101768.50;4995327;28;20026;-69
2021/12/12 05:01:01;;;;;;;15.27;6.60;;;;;;;5.22;96.02;101763.13;4993238;28;20113;-70
2021/12/12 05:03:49;;;;;;;13.05;6.82;;;;;;;5.23;95.92;101764.81;4995413;28;20081;-69
2021/12/12 05:06:26;;;;;;;11.27;6.05;;;;;;;5.19;96.49;101755.41;4994970;28;20496;-69
2021/12/12 05:09:15;;;;;;;12.55;6.78;;;;;;;5.26;96.57;101780.56;5006636;28;20108;-69
2021/12/12 05:11:59;;;;;;;11.50;6.43;;;;;;;5.26;95.78;101780.56;5014827;28;20037;-69
2021/12/12 05:14:29;;;;;;;14.15;6.25;;;;;;;5.27;96.75;101776.91;5014200;28;20069;-69
2021/12/12 05:17:17;;;;;;;11.93;6.78;;;;;;;5.29;96.51;101774.88;5014754;28;20381;-70
2021/12/12 05:19:59;;;;;;;14.88;7.07;;;;;;;5.31;96.50;101787.13;5014413;28;20480;-69
2021/12/12 05:22:33;;;;;;;;;;;;;;;5.37;95.60;101788.28;4998934;28;20030;-70
2021/12/12 05:25:01;;;;;;;11.30;5.93;;;;;;;5.33;96.38;101787.78;5014855;28;20432;-69
2021/12/12 05:27:27;;;;;;;12.20;6.28;;;;;;;5.33;96.49;101786.97;5013484;28;20065;-69
2021/12/12 05:30:04;;;;;;;12.68;6.25;;;;;;;5.34;96.90;101788.63;4996863;28;20037;-69
2021/12/12 05:32:31;;;;;;;12.48;5.82;;;;;;;5.35;97.11;101781.44;5014328;28;20068;-69
2021/12/12 05:34:57;;;;;;;13.15;5.93;;;;;;;5.35;96.97;101787.63;5014427;28;20040;-69
2021/12/12 05:37:24;;;;;;;11.70;6.30;;;;;;;5.39;96.94;101793.47;5010388;28;20382;-69
2021/12/12 05:39:51;;;;;;;11.75;6.20;;;;;;;5.40;96.97;101777.22;4994410;28;20038;-69
2021/12/12 05:42:19;;;;;;;10.30;5.82;;;;;;;5.43;96.76;101789.47;4994415;28;20109;-69
2021/12/12 05:44:45;;;;;;;11.30;5.82;;;;;;;5.44;96.89;101786.59;4994582;28;20085;-70
2021/12/12 05:47:11;;;;;;;10.27;5.90;;;;;;;5.45;96.75;101780.25;4994366;28;20054;-70
2021/12/12 05:49:39;;;;;;;13.30;6.07;;;;;;;5.46;97.28;101783.75;5007315;28;20046;-70
2021/12/12 05:52:08;;;;;;;8.57;5.72;;;;;;;5.49;97.28;101789.63;5010172;28;20049;-69
2021/12/12 05:54:34;;;;;;;13.20;6.00;;;;;;;5.52;96.94;101784.94;4994431;28;20500;-69
2021/12/12 05:57:01;;;;;;;6.57;5.43;;;;;;;5.51;97.43;101786.78;4994079;28;20109;-69
2021/12/12 05:59:27;;;;;;;8.65;5.90;;;;;;;5.56;97.08;101803.22;4994144;28;20030;-69
2021/12/12 06:01:53;;;;;;;9.25;5.82;;;;;;;5.58;97.37;101803.06;4974483;28;20027;-69
2021/12/12 06:04:19;;;;;;;9.10;5.35;;;;;;;5.60;97.05;101811.78;4994040;28;20031;-69
2021/12/12 06:06:45;;;;;;;9.55;5.68;;;;;;;5.62;97.18;101812.47;4996269;28;20378;-69
2021/12/12 06:09:13;;;;;;;11.27;6.05;;;;;;;5.64;96.91;101805.06;5013111;28;20036;-69
2021/12/12 06:11:41;;;;;;;9.68;6.05;;;;;;;5.66;97.53;101813.78;4994110;28;20109;-70
2021/12/12 06:14:08;;;;;;;10.35;6.15;;;;;;;5.68;96.76;101817.16;4993843;28;20168;-69
2021/12/12 06:16:36;;;;;;;10.88;6.35;;;;;;;5.68;96.85;101817.97;4993888;28;20049;-70
2021/12/12 06:19:10;;;;;;;13.20;6.40;;;;;;;5.73;97.20;101820.16;4993987;28;20023;-70
2021/12/12 06:21:36;;;;;;;11.20;6.35;;;;;;;5.73;96.64;101814.78;4979657;28;20358;-68
2021/12/12 06:24:03;;;;;;;10.25;6.32;;;;;;;5.73;96.92;101822.84;5013254;28;20040;-67
2021/12/12 06:26:29;;;;;;;9.90;6.70;;;;;;;5.73;97.35;101816.66;5013385;28;20030;-67
2021/12/12 06:28:55;;;;;;;11.80;7.35;;;;;;;5.77;97.82;101813.44;5013549;28;20037;-67
2021/12/12 06:31:20;;;;;;;12.38;7.50;;;;;;;5.78;97.27;101816.97;4999794;28;20085;-67
2021/12/12 06:33:46;;;;;;;14.93;7.47;;;;;;;5.76;97.60;101810.94;4993755;28;20118;-67
2021/12/12 06:36:14;;;;;;;11.70;7.00;;;;;;;5.78;97.74;101811.59;4995668;28;20521;-68
2021/12/12 06:38:43;;;;;;;10.27;6.97;;;;;;;5.81;97.73;101812.13;5012750;28;20538;-67
2021/12/12 06:41:09;;;;;;;11.60;7.32;;;;;;;5.83;97.50;101811.94;5012283;28;20057;-67
2021/12/12 06:43:36;;;;;;;12.15;7.40;;;;;;;5.84;97.13;101822.50;5012409;28;20026;-67
2021/12/12 06:46:04;;;;;;;12.65;7.30;;;;;;;5.89;97.52;101818.47;4994909;28;20046;-67
2021/12/12 06:48:30;;;;;;;10.18;7.20;;;;;;;5.87;98.05;101821.31;5012895;28;20042;-67
2021/12/12 06:50:56;;;;;;;12.77;7.30;;;;;;;5.91;97.38;101817.28;5010403;28;20476;-67
2021/12/12 06:53:24;;;;;;;11.98;7.47;;;;;;;5.92;97.88;101821.66;4993228;28;20113;-67
2021/12/12 06:55:52;;;;;;;12.73;7.78;;;;;;;5.95;97.64;101824.00;4993404;28;20038;-67
2021/12/12 06:58:19;;;;;;;11.23;7.72;;;;;;;5.97;97.57;101835.44;5010257;28;20177;-67
2021/12/12 07:00:48;;;;;;;15.02;8.07;;;;;;;5.96;98.05;101832.91;4992319;28;20025;-68
2021/12/12 07:03:16;;;;;;;12.77;8.32;;;;;;;5.96;98.09;101830.22;5012649;28;20033;-70
2021/12/12 07:05:42;;;;;;;14.50;8.15;;;;;;;5.99;97.95;101827.22;5012202;28;20095;-68
2021/12/12 07:08:08;;;;;;;17.40;8.75;;;;;;;6.00;98.38;101827.03;5012418;28;20461;-68
2021/12/12 07:10:33;;;;;;;13.38;8.15;;;;;;;6.06;97.80;101830.06;5012568;28;20517;-69
2021/12/12 07:13:00;;;;;;;15.13;8.23;;;;;;;6.04;97.89;101832.94;5012733;28;20030;-68
2021/12/12 07:15:32;;;;;;;13.82;8.60;;;;;;;6.05;98.12;101837.28;5012561;28;20084;-69
2021/12/12 07:18:04;;;;;;;13.18;8.85;;;;;;;6.09;98.02;101835.09;5012735;28;20057;-69
2021/12/12 07:20:29;;;;;;;16.70;8.73;;;;;;;6.09;98.00;101835.94;5011736;28;20441;-68
2021/12/12 07:22:55;;;;;;;17.05;9.35;;;;;;;6.09;98.20;101822.50;4992743;28;20031;-68
2021/12/12 07:25:21;;;;;;;15.15;8.73;;;;;;;6.13;98.23;101833.72;4993511;28;20042;-68
2021/12/12 07:27:51;;;;;;;13.15;8.68;;;;;;;6.14;98.00;101830.03;4992803;28;20489;-68
2021/12/12 07:30:17;;;;;;;13.95;8.70;;;;;;;6.17;97.59;101843.97;4992829;28;20034;-68
2021/12/12 07:32:43;;;;;;;14.50;9.00;;;;;;;6.15;98.42;101827.19;4993061;28;20501;-68
2021/12/12 07:35:10;;;;;;;15.02;9.00;;;;;;;6.16;98.07;101828.00;4975400;28;20026;-69
2021/12/12 07:37:37;;;;;;;16.23;9.68;;;;;;;6.18;98.08;101824.16;5012664;28;20042;-69
2021/12/12 07:40:05;;;;;;;19.10;9.30;;;;;;;6.19;97.90;101831.22;5012276;28;20184;-69
2021/12/12 07:42:31;;;;;;;17.65;9.73;;;;;;;6.20;98.12;101840.97;5012166;28;20464;-68
2021/12/12 07:44:56;;;;;;;16.17;9.00;;;;;;;6.23;97.95;101841.63;5012571;28;20041;-68
2021/12/12 07:47:23;;;;;;;15.68;9.25;;;;;;;6.23;98.50;101842.44;5012274;28;20441;-69
2021/12/12 07:49:50;;;;;;;16.45;9.80;;;;;;;6.24;98.55;101846.00;5012523;28;20030;-68
2021/12/12 07:52:21;;;;;;;18.33;9.57;;;;;;;6.25;98.49;101847.66;4997534;28;20045;-69
2021/12/12 07:54:49;;;;;;;15.45;9.30;;;;;;;6.29;98.12;101840.94;4996306;28;20406;-69
2021/12/12 07:57:15;;;;;;;19.45;10.00;;;;;;;6.30;98.58;101838.06;4996386;28;20031;-69
2021/12/12 07:59:41;;;;;;;22.38;9.75;;;;;;;6.32;98.65;101840.56;4996542;28;20494;-73
2021/12/12 08:02:09;;;;;;;19.65;10.50;;;;;;;6.34;99.16;101854.69;4997602;28;20030;-71
2021/12/12 08:04:35;;;;;;;21.13;10.13;;;;;;;6.37;98.16;101848.94;5015644;28;20037;-69
2021/12/12 08:07:01;;;;;;;17.85;9.60;;;;;;;6.37;98.68;101849.81;4997026;28;20042;-70
2021/12/12 08:09:27;;;;;;;17.40;10.07;;;;;;;6.40;98.56;101848.59;4996214;28;20030;-71
2021/12/12 08:11:53;;;;;;;18.50;10.15;;;;;;;6.42;99.03;101857.34;4996392;28;20030;-67
2021/12/12 08:14:22;;;;;;;19.10;10.63;;;;;;;6.43;98.52;101860.88;4996254;28;20465;-71
2021/12/12 08:16:49;;;;;;;20.83;10.00;;;;;;;6.49;99.05;101865.56;4996356;28;20093;-69
2021/12/12 08:19:18;;;;;;;16.90;10.13;;;;;;;6.50;98.62;101865.38;4995789;28;20033;-68
2021/12/12 08:21:43;;;;;;;18.63;10.15;;;;;;;6.51;99.02;101871.63;5004669;28;20068;-68
2021/12/12 08:24:11;;;;;;;20.10;11.05;;;;;;;6.50;98.76;101881.53;4996109;28;20069;-70
2021/12/12 08:26:39;;;;;;;18.33;10.63;;;;;;;6.50;99.54;101870.75;4995805;28;20057;-69
2021/12/12 08:29:06;;;;;;;19.13;10.50;;;;;;;6.52;99.23;101882.22;4996062;28;20084;-69
2021/12/12 08:31:33;;;;;;;18.40;10.38;;;;;;;6.59;99.19;101890.41;4996448;28;20545;-70
2021/12/12 08:33:59;;;;;;;23.70;10.95;;;;;;;6.57;99.16;101887.91;4996099;28;20034;-69
2021/12/12 08:36:24;;;;;;;22.40;10.63;;;;;;;6.62;98.86;101895.44;5013010;28;20034;-74
2021/12/12 08:38:51;;;;;;;23.08;11.43;;;;;;;6.61;98.75;101895.63;4997889;28;20037;-68
2021/12/12 08:41:16;;;;;;;18.95;10.98;;;;;;;6.64;99.93;101897.97;5014971;28;20034;-70
2021/12/12 08:43:43;;;;;;;21.90;11.20;;;;;;;6.63;99.83;101899.81;5015059;28;20060;-68
2021/12/12 08:46:12;;;;;;;17.13;11.18;;;;;;;6.64;99.39;101898.78;4997400;28;20125;-68
2021/12/12 08:48:41;;;;;;;18.27;10.77;;;;;;;6.66;98.95;101895.94;5014523;28;20041;-68
2021/12/12 08:51:11;;;;;;;23.05;11.13;;;;;;;6.70;99.24;101895.44;4999884;28;20524;-68
2021/12/12 08:53:39;;;;;;;21.55;11.38;;;;;;;6.73;99.15;101902.28;4995375;28;20034;-74
2021/12/12 08:56:09;;;;;;;20.70;11.32;;;;;;;6.72;99.57;101901.47;4995595;28;20508;-69
2021/12/12 08:58:35;;;;;;;18.67;10.82;;;;;;;6.77;99.09;101902.81;4977798;28;20033;-69
2021/12/12 09:01:06;;;;;;;19.42;11.05;;;;;;;6.77;99.18;101914.38;4992959;28;20030;-72
2021/12/12 09:03:40;;;;;;;25.67;12.30;;;;;;;6.80;99.54;101905.97;4977685;28;20037;-69
2021/12/12 09:06:07;;;;;;;22.40;11.30;;;;;;;6.85;99.14;101919.72;5005484;28;20038;-73
2021/12/12 09:08:39;;;;;;;24.75;11.60;;;;;;;6.86;99.83;101910.66;5013567;28;20500;-69
2021/12/12 09:11:19;;;;;;;22.10;11.82;;;;;;;6.89;99.21;101914.84;5014782;28;20394;-67
2021/12/12 09:13:49;;;;;;;22.58;11.35;;;;;;;6.88;98.92;101899.72;5014919;28;20034;-70
2021/12/12 09:16:17;;;;;;;20.48;11.57;;;;;;;6.90;99.29;101912.00;5014746;28;20036;-71
2021/12/12 09:18:59;;;;;;;18.80;10.88;;;;;;;6.90;99.91;101920.06;5014733;28;20096;-69
2021/12/12 09:21:32;;;;;;;20.63;12.02;;;;;;;6.92;99.84;101930.66;5014411;28;20030;-67
2021/12/12 09:24:11;;;;;;;25.55;11.48;;;;;;;6.94;99.77;101925.09;5006893;28;20035;-66
2021/12/12 09:26:43;;;;;;;22.77;11.57;;;;;;;6.91;99.50;101927.13;5007398;28;20033;-69
2021/12/12 09:29:57;;;;;;;24.58;11.80;;;;;;;7.02;99.62;101943.88;5011552;28;20041;-70
2021/12/12 09:32:25;;;;;;;20.25;10.50;;;;;;;6.99;99.11;101945.09;4993386;28;20053;-72
2021/12/12 09:35:00;;;;;;;28.05;11.55;;;;;;;6.96;99.63;101933.81;5005540;28;20070;-70
2021/12/12 09:37:37;;;;;;;20.13;11.27;;;;;;;6.98;99.71;101939.88;5013799;28;20036;-72
2021/12/12 09:40:22;;;;;;;19.35;11.07;;;;;;;6.98;100.00;101945.28;5009914;28;20041;-68
2021/12/12 09:43:25;;;;;;;20.83;10.95;;;;;;;7.07;99.73;101946.91;5005991;28;20034;-67
2021/12/12 09:46:28;;;;;;;19.10;10.70;;;;;;;7.07;99.74;101944.22;4994767;28;20073;-68
2021/12/12 09:52:13;;;;;;;21.58;11.27;;;;;;;7.12;99.31;101959.84;5010218;28;20041;-67
2021/12/12 09:54:45;;;;;;;18.17;11.20;;;;;;;7.16;99.54;101958.50;5001628;28;20131;-70
2021/12/12 09:57:14;;;;;;;22.00;11.13;;;;;;;7.15;100.00;101960.31;5012447;28;20056;-73
2021/12/12 09:59:48;;;;;;;21.75;11.52;;;;;;;7.19;99.78;101961.66;5008310;28;20045;-70
2021/12/12 10:02:35;;;;;;;20.70;11.05;;;;;;;7.21;99.34;101959.63;5001803;28;20026;-68
2021/12/12 10:05:11;;;;;;;21.85;11.77;;;;;;;7.21;99.93;101961.47;5009808;28;20396;-68
2021/12/12 10:08:05;;;;;;;21.50;11.30;;;;;;;7.21;100.00;101959.63;5002318;28;20473;-71
2021/12/12 10:10:33;;;;;;;26.58;12.85;;;;;;;7.23;100.00;101952.22;5000832;28;20129;-68
2021/12/12 10:13:32;;;;;;;24.35;11.68;;;;;;;7.25;100.00;101957.44;5003758;28;20038;-71
2021/12/12 10:16:16;;;;;;;22.15;12.05;;;;;;;7.30;100.00;101962.28;4995142;28;20489;-69
2021/12/12 10:18:47;;;;;;;24.13;11.77;;;;;;;7.28;99.99;101949.00;4999348;28;20029;-69
2021/12/12 10:21:15;;;;;;;;;;;;;;;7.34;99.38;101964.44;5013769;28;20492;-69
2021/12/12 10:24:07;;;;;;;25.50;11.90;;;;;;;7.33;99.61;101957.38;5007728;28;19964;-72
2021/12/12 10:26:41;;;;;;;19.95;11.45;;;;;;;7.36;100.00;101961.59;4960950;28;20034;-68
2021/12/12 10:29:20;;;;;;;23.45;11.82;;;;;;;7.35;100.00;101959.91;5004857;28;20088;-68
2021/12/12 10:32:07;;;;;;;21.42;11.95;;;;;;;7.40;100.00;101965.59;4995611;28;20388;-68
2021/12/12 10:34:41;;;;;;;22.98;11.82;;;;;;;7.37;100.00;101961.41;4995186;28;20034;-68
2021/12/12 10:37:27;;;;;;;21.45;11.85;;;;;;;7.35;100.00;101959.91;4995729;28;20462;-67
2021/12/12 10:39:58;;;;;;;23.48;12.80;;;;;;;7.37;100.00;101958.72;5013580;28;20037;-70
2021/12/12 10:42:33;;;;;;;22.15;12.18;;;;;;;7.41;99.66;101969.97;4993584;28;20032;-68
2021/12/12 10:45:03;;;;;;;22.30;12.00;;;;;;;7.42;99.74;101956.31;5007752;28;20033;-67
2021/12/12 10:47:58;;;;;;;23.23;12.00;;;;;;;7.44;100.00;101965.06;5012571;28;20034;-67
2021/12/12 10:50:28;;;;;;;22.42;12.02;;;;;;;7.44;100.00;101962.38;5007309;28;20105;-67
2021/12/12 10:53:44;;;;;;;23.33;13.07;;;;;;;7.52;100.00;101950.72;4981964;28;20116;-67
2021/12/12 10:56:33;;;;;;;22.67;12.13;;;;;;;7.45;100.00;101960.53;4932931;29;20044;-69
2021/12/12 10:59:02;;;;;;;26.38;13.27;;;;;;;7.45;100.00;101958.66;4990004;28;20096;-69
2021/12/12 11:01:33;;;;;;;22.35;12.50;;;;;;;7.49;100.00;101966.38;4996717;28;20038;-69
2021/12/12 11:04:13;;;;;;;21.25;12.05;;;;;;;7.52;100.00;101961.50;5003933;28;20535;-67
2021/12/12 11:06:49;;;;;;;20.15;12.70;;;;;;;7.51;100.00;101959.81;4993094;28;20034;-68
2021/12/12 11:09:29;;;;;;;21.67;12.63;;;;;;;7.49;100.00;101959.16;4993230;28;20470;-71
2021/12/12 11:12:20;;;;;;;26.13;13.00;;;;;;;7.56;100.00;101962.81;5001677;28;20477;-70
2021/12/12 11:15:07;;;;;;;20.35;12.18;;;;;;;7.58;100.00;101963.47;5012615;28;20030;-71
2021/12/12 11:17:40;;;;;;;19.20;12.25;;;;;;;7.58;100.00;101960.78;5012552;28;20030;-69
2021/12/12 11:20:16;;;;;;;17.83;11.73;;;;;;;7.63;100.00;101962.94;5012758;28;20030;-73
2021/12/12 11:22:47;;;;;;;19.65;11.20;;;;;;;7.63;100.00;101960.25;4994221;28;20117;-71
2021/12/12 11:25:28;;;;;;;21.60;11.60;;;;;;;7.67;100.00;101958.88;5012833;28;20036;-70
2021/12/12 11:28:10;;;;;;;17.40;11.63;;;;;;;7.68;100.00;101954.31;5016894;28;20037;-72
2021/12/12 11:30:43;;;;;;;18.40;11.32;;;;;;;7.72;100.00;101955.66;5016452;28;20033;-69
2021/12/12 11:33:12;;;;;;;18.73;11.07;;;;;;;7.74;100.00;101948.22;4997300;28;20034;-70
2021/12/12 11:35:40;;;;;;;16.33;10.98;;;;;;;7.76;100.00;101954.25;4996879;28;20030;-69
2021/12/12 11:38:20;;;;;;;20.60;13.23;;;;;;;7.77;100.00;101945.16;4997049;28;20034;-71
2021/12/12 11:40:53;;;;;;;19.08;11.38;;;;;;;7.79;100.00;101953.91;4997083;28;20077;-72
2021/12/12 11:43:27;;;;;;;17.83;12.10;;;;;;;7.82;100.00;101958.94;4996877;28;20037;-70
2021/12/12 11:45:58;;;;;;;22.83;15.52;;;;;;;7.83;100.00;101957.09;4996622;28;20497;-73
2021/12/12 11:48:24;;;;;;;15.55;11.55;;;;;;;7.86;100.00;101962.94;4996862;28;20117;-70
2021/12/12 11:51:10;;;;;;;16.67;11.05;;;;;;;7.87;100.00;101959.25;4996677;28;20050;-70
2021/12/12 11:53:56;;;;;;;16.17;9.30;;;;;;;7.88;100.00;101965.47;4996838;28;20038;-71
2021/12/12 11:56:45;;;;;;;14.95;9.90;;;;;;;7.92;100.00;101959.53;4996709;28;20029;-71
2021/12/12 11:59:30;;;;;;;13.57;9.20;;;;;;;7.92;100.00;101956.84;4996766;28;20595;-72
2021/12/12 12:02:29;;;;;;;15.52;9.93;;;;;;;7.96;100.00;101960.84;4994491;28;20030;-70